createdAt,value
2019-02-26T00:02:04.385Z,53.93
2019-02-26T00:04:35.061Z,53.85
2019-02-26T00:07:03.021Z,54.00
2019-02-26T00:09:34.633Z,54.43
2019-02-26T00:12:01.713Z,54.21
2019-02-26T00:14:30.415Z,54.01
2019-02-26T00:17:00.358Z,54.07
2019-02-26T00:19:28.832Z,54.11
2019-02-26T00:21:57.205Z,53.96
2019-02-26T00:24:25.758Z,54.03
2019-02-26T00:26:54.131Z,54.15
2019-02-26T00:29:23.301Z,54.24
2019-02-26T00:31:55.442Z,54.31
2019-02-26T00:34:23.747Z,54.33
2019-02-26T00:36:52.234Z,54.35
2019-02-26T00:39:22.647Z,54.34
2019-02-26T00:41:53.258Z,54.34
2019-02-26T00:44:23.259Z,54.46
2019-02-26T00:46:53.429Z,54.67
2019-02-26T00:49:23.562Z,54.60
2019-02-26T00:51:52.789Z,54.68
2019-02-26T00:54:24.266Z,54.68
2019-02-26T00:56:52.237Z,54.81
2019-02-26T00:59:20.695Z,54.97
2019-02-26T01:01:50.301Z,55.08
2019-02-26T01:04:19.944Z,55.10
2019-02-26T01:06:48.428Z,55.27
2019-02-26T01:09:16.881Z,55.32
2019-02-26T01:11:47.529Z,55.47
2019-02-26T01:14:15.753Z,55.62
2019-02-26T01:16:46.545Z,55.70
2019-02-26T01:19:17.539Z,55.88
2019-02-26T01:21:46.261Z,56.09
2019-02-26T01:24:14.712Z,56.16
2019-02-26T01:26:43.616Z,56.30
2019-02-26T01:29:16.055Z,56.36
2019-02-26T01:31:42.243Z,56.42
2019-02-26T01:34:11.989Z,56.50
2019-02-26T01:36:42.663Z,56.72
2019-02-26T01:39:13.441Z,56.79
2019-02-26T01:41:43.460Z,57.04
2019-02-26T01:44:11.454Z,57.01
2019-02-26T01:46:41.125Z,56.98
2019-02-26T01:49:10.098Z,57.08
2019-02-26T01:51:38.586Z,56.87
2019-02-26T01:54:09.464Z,57.14
2019-02-26T01:56:37.296Z,57.34
2019-02-26T01:59:06.163Z,57.45
2019-02-26T02:01:34.931Z,57.43
2019-02-26T02:04:03.487Z,57.65
2019-02-26T02:06:33.118Z,57.56
2019-02-26T02:09:02.252Z,57.64
2019-02-26T02:11:31.194Z,57.85
2019-02-26T02:14:01.985Z,58.08
2019-02-26T02:16:31.818Z,58.36
2019-02-26T02:19:01.219Z,58.51
2019-02-26T02:21:31.506Z,58.52
2019-02-26T02:23:59.900Z,58.57
2019-02-26T02:26:28.412Z,58.67
2019-02-26T02:28:56.853Z,58.85
2019-02-26T02:31:28.045Z,59.00
2019-02-26T02:33:55.431Z,59.24
2019-02-26T02:36:26.423Z,59.38
2019-02-26T02:38:54.467Z,59.36
2019-02-26T02:41:22.928Z,59.51
2019-02-26T02:43:51.451Z,59.78
2019-02-26T02:46:19.952Z,59.77
2019-02-26T02:48:48.439Z,60.05
2019-02-26T02:51:16.877Z,60.32
2019-02-26T02:53:47.685Z,60.15
2019-02-26T02:56:17.827Z,60.38
2019-02-26T02:58:46.975Z,60.65
2019-02-26T03:01:16.642Z,60.80
2019-02-26T03:03:47.724Z,60.60
2019-02-26T03:06:16.882Z,60.65
2019-02-26T03:08:47.808Z,60.74
2019-02-26T03:11:15.544Z,60.86
2019-02-26T03:13:45.763Z,61.08
2019-02-26T03:16:15.953Z,61.34
2019-02-26T03:18:44.668Z,61.47
2019-02-26T03:21:13.133Z,61.40
2019-02-26T03:23:43.517Z,61.55
2019-02-26T03:26:14.676Z,61.69
2019-02-26T03:28:42.213Z,61.73
2019-02-26T03:31:12.118Z,61.76
2019-02-26T03:33:40.502Z,61.85
2019-02-26T03:36:11.125Z,62.09
2019-02-26T03:38:40.884Z,62.12
2019-02-26T03:41:09.742Z,62.32
2019-02-26T03:43:39.361Z,62.38
2019-02-26T03:46:08.979Z,62.41
2019-02-26T03:48:37.439Z,62.32
2019-02-26T03:51:06.048Z,62.45
2019-02-26T03:53:36.425Z,62.94
2019-02-26T03:56:08.110Z,62.92
2019-02-26T03:58:34.895Z,63.26
2019-02-26T04:01:07.225Z,63.23
2019-02-26T04:03:35.289Z,63.36
2019-02-26T04:06:07.494Z,63.20
2019-02-26T04:08:34.116Z,63.53
2019-02-26T04:11:02.501Z,63.49
2019-02-26T04:13:30.901Z,63.91
2019-02-26T04:16:01.549Z,63.91
2019-02-26T04:18:34.158Z,64.00
2019-02-26T04:21:03.206Z,64.16
2019-02-26T04:23:30.164Z,64.44
2019-02-26T04:26:38.639Z,64.69
2019-02-26T04:29:49.337Z,64.52
2019-02-26T04:32:57.280Z,64.50
2019-02-26T04:36:05.765Z,64.48
2019-02-26T04:39:16.503Z,65.08
2019-02-26T04:42:23.112Z,65.22
2019-02-26T04:45:30.316Z,65.40
2019-02-26T04:48:38.784Z,65.41
2019-02-26T04:51:07.198Z,65.48
2019-02-26T04:53:36.500Z,65.49
2019-02-26T04:56:48.022Z,65.70
2019-02-26T04:59:16.942Z,65.66
2019-02-26T05:01:49.103Z,65.67
2019-02-26T05:04:16.939Z,65.92
2019-02-26T05:06:45.431Z,65.80
2019-02-26T05:09:14.217Z,66.11
2019-02-26T05:11:42.697Z,66.05
2019-02-26T05:14:11.803Z,66.14
2019-02-26T05:16:41.444Z,66.14
2019-02-26T05:19:10.660Z,66.03
2019-02-26T05:21:40.060Z,66.11
2019-02-26T05:24:08.446Z,66.01
2019-02-26T05:26:36.853Z,66.27
2019-02-26T05:29:46.594Z,66.17
2019-02-26T05:32:15.462Z,66.12
2019-02-26T05:34:45.953Z,66.49
2019-02-26T05:37:14.090Z,66.46
2019-02-26T05:39:43.333Z,66.39
2019-02-26T05:42:12.753Z,66.40
2019-02-26T05:44:41.352Z,66.42
2019-02-26T05:47:09.847Z,66.55
2019-02-26T05:49:40.864Z,66.51
2019-02-26T05:52:08.914Z,66.54
2019-02-26T05:54:37.311Z,66.32
2019-02-26T05:57:06.684Z,66.41
2019-02-26T05:59:36.025Z,66.28
2019-02-26T06:02:04.498Z,66.15
2019-02-26T06:04:35.245Z,66.27
2019-02-26T06:07:04.739Z,66.54
2019-02-26T06:09:33.957Z,66.32
2019-02-26T06:12:03.998Z,66.46
2019-02-26T06:14:33.777Z,66.68
2019-02-26T06:17:02.968Z,66.72
2019-02-26T06:19:50.949Z,66.69
2019-02-26T06:22:21.413Z,66.67
2019-02-26T06:24:49.874Z,66.85
2019-02-26T06:27:21.771Z,66.64
2019-02-26T06:29:52.802Z,66.99
2019-02-26T06:32:18.781Z,67.05
2019-02-26T06:34:47.226Z,67.07
2019-02-26T06:37:55.975Z,67.34
2019-02-26T06:40:24.496Z,67.07
2019-02-26T06:42:53.066Z,66.85
2019-02-26T06:45:21.447Z,66.86
2019-02-26T06:47:51.325Z,67.04
2019-02-26T06:50:20.320Z,67.05
2019-02-26T06:52:50.681Z,66.91
2019-02-26T06:55:19.012Z,67.05
2019-02-26T06:57:50.789Z,66.79
2019-02-26T07:00:57.646Z,66.60
2019-02-26T07:03:26.215Z,66.60
2019-02-26T07:05:54.718Z,66.73
2019-02-26T07:08:24.221Z,66.79
2019-02-26T07:10:53.531Z,66.76
2019-02-26T07:13:22.379Z,66.92
2019-02-26T07:15:51.268Z,67.01
2019-02-26T07:18:19.796Z,67.17
2019-02-26T07:20:51.931Z,67.02
2019-02-26T07:23:18.791Z,66.98
2019-02-26T07:25:47.349Z,66.81
2019-02-26T07:28:17.444Z,66.79
2019-02-26T07:30:46.935Z,66.91
2019-02-26T07:33:16.215Z,66.74
2019-02-26T07:35:44.778Z,66.74
2019-02-26T07:38:15.678Z,66.72
2019-02-26T07:40:43.931Z,66.45
2019-02-26T07:43:14.855Z,66.32
2019-02-26T07:45:42.841Z,66.24
2019-02-26T07:48:16.281Z,66.03
2019-02-26T07:50:44.107Z,65.94
2019-02-26T07:53:12.165Z,65.88
2019-02-26T07:55:42.441Z,66.00
2019-02-26T07:58:13.756Z,65.98
2019-02-26T08:00:47.140Z,65.55
2019-02-26T08:03:12.936Z,65.28
2019-02-26T08:05:41.466Z,65.00
2019-02-26T08:08:11.982Z,64.94
2019-02-26T08:10:42.834Z,64.40
2019-02-26T08:13:10.763Z,64.11
2019-02-26T08:18:26.701Z,63.52
2019-02-26T08:20:57.474Z,63.61
2019-02-26T08:23:26.411Z,63.74
2019-02-26T08:25:57.830Z,63.40
2019-02-26T08:28:26.069Z,63.29
2019-02-26T08:30:55.285Z,63.17
2019-02-26T08:33:24.914Z,62.79
2019-02-26T08:35:55.510Z,62.68
2019-02-26T08:38:23.583Z,62.50
2019-02-26T08:40:52.088Z,62.28
2019-02-26T08:43:20.618Z,62.20
2019-02-26T08:45:49.479Z,62.08
2019-02-26T08:51:09.047Z,61.70
2019-02-26T08:53:37.304Z,61.15
2019-02-26T08:56:08.319Z,61.54
2019-02-26T08:58:36.317Z,61.74
2019-02-26T09:01:04.849Z,61.85
2019-02-26T09:03:40.358Z,61.40
2019-02-26T09:06:12.895Z,61.37
2019-02-26T09:08:35.639Z,61.42
2019-02-26T09:11:06.261Z,61.42
2019-02-26T09:13:36.286Z,61.13
2019-02-26T09:16:06.127Z,60.94
2019-02-26T09:18:37.916Z,60.55
2019-02-26T09:21:07.059Z,60.54
2019-02-26T09:23:35.579Z,59.83
2019-02-26T09:26:06.544Z,59.27
2019-02-26T09:28:34.300Z,59.06
2019-02-26T09:33:40.363Z,59.10
2019-02-26T09:36:10.520Z,59.56
2019-02-26T09:38:39.950Z,59.56
2019-02-26T09:41:11.320Z,59.60
2019-02-26T09:43:40.986Z,59.89
2019-02-26T09:46:13.309Z,59.65
2019-02-26T09:48:41.110Z,59.86
2019-02-26T09:51:12.275Z,59.87
2019-02-26T09:53:40.539Z,59.80
2019-02-26T09:56:09.042Z,59.79
2019-02-26T09:58:40.362Z,60.23
2019-02-26T10:01:09.096Z,59.90
2019-02-26T10:03:39.095Z,60.11
2019-02-26T10:06:08.546Z,60.18
2019-02-26T10:08:36.987Z,60.32
2019-02-26T10:11:05.518Z,60.75
2019-02-26T10:13:33.987Z,61.07
2019-02-26T10:16:04.484Z,61.20
2019-02-26T10:18:33.032Z,60.63
2019-02-26T10:21:02.998Z,60.33
2019-02-26T10:23:33.077Z,60.12
2019-02-26T10:26:13.791Z,60.34
2019-02-26T10:28:43.401Z,60.22
2019-02-26T10:31:12.422Z,59.68
2019-02-26T10:33:43.168Z,59.58
2019-02-26T10:36:13.499Z,59.18
2019-02-26T10:41:38.838Z,58.87
2019-02-26T10:44:07.048Z,58.55
2019-02-26T10:46:37.135Z,57.87
2019-02-26T10:49:06.460Z,57.38
2019-02-26T10:51:35.245Z,56.90
2019-02-26T10:54:08.251Z,56.59
2019-02-26T10:56:39.078Z,56.03
2019-02-26T10:59:06.684Z,56.22
2019-02-26T11:01:35.439Z,56.15
2019-02-26T11:04:05.672Z,56.70
2019-02-26T11:06:36.665Z,57.46
2019-02-26T11:09:45.251Z,57.45
2019-02-26T11:12:14.721Z,57.35
2019-02-26T11:14:44.307Z,58.08
2019-02-26T11:17:13.481Z,58.41
2019-02-26T11:19:42.321Z,57.96
2019-02-26T11:22:10.873Z,57.47
2019-02-26T11:27:56.275Z,56.29
2019-02-26T11:31:05.055Z,54.77
2019-02-26T11:33:33.679Z,55.34
2019-02-26T11:36:03.080Z,55.78
2019-02-26T11:38:34.841Z,56.46
2019-02-26T11:41:03.242Z,56.97
2019-02-26T11:43:31.683Z,57.62
2019-02-26T11:46:01.468Z,57.17
2019-02-26T11:48:33.110Z,56.95
2019-02-26T11:51:01.550Z,56.96
2019-02-26T11:53:31.356Z,56.56
2019-02-26T11:56:01.861Z,56.50
2019-02-26T11:58:30.131Z,56.05
2019-02-26T12:03:48.074Z,47.59
2019-02-26T12:06:16.660Z,48.32
2019-02-26T12:08:47.220Z,48.67
2019-02-26T12:11:17.646Z,50.68
2019-02-26T12:13:47.422Z,52.19
2019-02-26T12:16:16.242Z,52.81
2019-02-26T12:18:46.870Z,53.10
2019-02-26T12:21:15.126Z,53.55
2019-02-26T12:23:46.013Z,53.76
2019-02-26T12:26:13.751Z,54.68
2019-02-26T12:28:42.261Z,55.65
2019-02-26T12:31:12.833Z,56.15
2019-02-26T12:33:40.973Z,56.92
2019-02-26T12:36:10.246Z,57.56
2019-02-26T12:38:39.656Z,58.04
2019-02-26T12:41:08.864Z,58.68
2019-02-26T12:43:42.653Z,58.70
2019-02-26T12:46:09.065Z,59.03
2019-02-26T12:51:09.467Z,59.59
2019-02-26T12:53:57.067Z,59.10
2019-02-26T12:56:27.880Z,58.62
2019-02-26T12:58:56.359Z,58.36
2019-02-26T13:01:24.907Z,58.84
2019-02-26T13:03:54.955Z,58.81
2019-02-26T13:06:23.785Z,59.09
2019-02-26T13:08:52.302Z,58.56
2019-02-26T13:11:24.267Z,58.18
2019-02-26T13:13:53.312Z,57.30
2019-02-26T13:16:21.436Z,57.30
2019-02-26T13:18:51.551Z,57.08
2019-02-26T13:21:20.197Z,57.93
2019-02-26T13:23:48.831Z,58.21
2019-02-26T13:26:19.726Z,58.07
2019-02-26T13:28:52.794Z,58.76
2019-02-26T13:31:21.557Z,59.08
2019-02-26T13:33:48.452Z,59.29
2019-02-26T13:36:17.062Z,59.41
2019-02-26T13:38:49.061Z,59.75
2019-02-26T13:41:38.320Z,60.41
2019-02-26T13:43:46.196Z,60.67
2019-02-26T13:46:14.880Z,61.25
2019-02-26T13:48:43.470Z,61.72
2019-02-26T13:51:12.115Z,62.05
2019-02-26T13:53:40.738Z,62.28
2019-02-26T13:56:09.207Z,62.43
2019-02-26T13:58:37.843Z,62.42
2019-02-26T14:01:06.514Z,62.42
2019-02-26T14:03:34.994Z,62.45
2019-02-26T14:06:03.596Z,62.35
2019-02-26T14:08:32.098Z,62.58
2019-02-26T14:11:00.585Z,62.62
2019-02-26T14:13:29.270Z,62.42
2019-02-26T14:15:57.678Z,62.88
2019-02-26T14:18:26.538Z,62.80
2019-02-26T14:20:55.084Z,62.95
2019-02-26T14:23:23.461Z,63.23
2019-02-26T14:25:52.285Z,63.79
2019-02-26T14:28:20.775Z,63.98
2019-02-26T14:30:49.288Z,64.25
2019-02-26T14:33:18.147Z,64.57
2019-02-26T14:35:46.931Z,64.74
2019-02-26T14:41:02.881Z,64.45
2019-02-26T14:43:31.737Z,64.76
2019-02-26T14:46:00.379Z,64.71
2019-02-26T14:48:28.823Z,64.81
2019-02-26T14:50:57.298Z,64.59
2019-02-26T14:53:27.653Z,64.50
2019-02-26T14:55:56.476Z,64.05
2019-02-26T14:58:24.948Z,63.82
2019-02-26T15:00:57.718Z,63.58
2019-02-26T15:03:24.040Z,63.36
2019-02-26T15:05:52.570Z,63.42
2019-02-26T15:08:21.039Z,63.55
2019-02-26T15:10:49.486Z,63.62
2019-02-26T15:13:18.141Z,63.90
2019-02-26T15:15:46.605Z,63.97
2019-02-26T15:18:15.251Z,64.42
2019-02-26T15:20:43.735Z,64.59
2019-02-26T15:23:12.179Z,64.84
2019-02-26T15:25:41.086Z,64.68
2019-02-26T15:28:09.849Z,64.83
2019-02-26T15:30:38.386Z,64.84
2019-02-26T15:33:11.034Z,64.82
2019-02-26T15:35:37.173Z,65.17
2019-02-26T15:38:05.901Z,65.16
2019-02-26T15:40:34.506Z,65.35
2019-02-26T15:43:03.046Z,65.28
2019-02-26T15:45:33.394Z,65.45
2019-02-26T15:48:04.000Z,65.33
2019-02-26T15:50:32.637Z,65.27
2019-02-26T15:53:01.161Z,65.33
2019-02-26T15:56:09.858Z,65.41
2019-02-26T15:58:38.484Z,66.05
2019-02-26T16:01:46.981Z,66.24
2019-02-26T16:04:15.467Z,66.41
2019-02-26T16:06:44.020Z,66.70
2019-02-26T16:09:14.812Z,67.12
2019-02-26T16:11:42.878Z,67.55
2019-02-26T16:14:11.376Z,67.54
2019-02-26T16:16:39.897Z,67.73
2019-02-26T16:19:08.293Z,67.82
2019-02-26T16:21:36.965Z,67.76
2019-02-26T16:24:05.552Z,68.08
2019-02-26T16:26:34.197Z,67.92
2019-02-26T16:29:02.918Z,68.04
2019-02-26T16:31:31.990Z,68.30
2019-02-26T16:34:00.726Z,68.38
2019-02-26T16:36:31.688Z,68.22
2019-02-26T16:38:59.462Z,68.20
2019-02-26T16:41:28.092Z,68.17
2019-02-26T16:43:56.573Z,68.36
2019-02-26T16:46:25.100Z,68.42
2019-02-26T16:48:54.115Z,68.63
2019-02-26T16:51:23.812Z,68.83
2019-02-26T16:53:52.333Z,68.95
2019-02-26T16:56:21.959Z,69.06
2019-02-26T16:58:51.056Z,69.55
2019-02-26T17:01:19.703Z,69.66
2019-02-26T17:03:49.866Z,69.83
2019-02-26T17:06:39.441Z,70.51
2019-02-26T17:09:08.034Z,70.23
2019-02-26T17:11:36.690Z,70.32
2019-02-26T17:14:05.356Z,70.43
2019-02-26T17:16:33.910Z,70.71
2019-02-26T17:19:02.668Z,70.58
2019-02-26T17:21:31.382Z,70.70
2019-02-26T17:23:59.854Z,70.53
2019-02-26T17:26:28.325Z,70.62
2019-02-26T17:28:56.857Z,70.68
2019-02-26T17:31:25.349Z,70.69
2019-02-26T17:33:53.872Z,70.71
2019-02-26T17:36:22.383Z,71.42
2019-02-26T17:38:51.789Z,71.26
2019-02-26T17:41:21.428Z,71.22
2019-02-26T17:43:49.972Z,71.23
2019-02-26T17:46:18.462Z,71.30
2019-02-26T17:48:46.998Z,71.67
2019-02-26T17:51:18.769Z,72.24
2019-02-26T17:53:45.852Z,71.75
2019-02-26T17:56:14.492Z,71.91
2019-02-26T17:58:43.984Z,71.93
2019-02-26T18:01:13.731Z,72.70
2019-02-26T18:03:44.566Z,72.53
2019-02-26T18:06:32.200Z,72.54
2019-02-26T18:09:00.909Z,72.83
2019-02-26T18:11:29.461Z,72.77
2019-02-26T18:14:00.180Z,72.87
2019-02-26T18:16:28.267Z,73.04
2019-02-26T18:18:56.837Z,73.17
2019-02-26T18:21:25.427Z,73.29
2019-02-26T18:23:54.244Z,73.37
2019-02-26T18:26:22.786Z,73.43
2019-02-26T18:28:53.136Z,73.52
2019-02-26T18:31:26.408Z,73.71
2019-02-26T18:33:52.315Z,73.80
2019-02-26T18:36:20.819Z,73.90
2019-02-26T18:38:49.535Z,74.03
2019-02-26T18:41:18.330Z,74.12
2019-02-26T18:43:47.428Z,74.26
2019-02-26T18:46:17.095Z,74.42
2019-02-26T18:48:48.284Z,74.78
2019-02-26T18:51:16.307Z,74.84
2019-02-26T18:53:47.062Z,75.06
2019-02-26T18:56:15.154Z,75.12
2019-02-26T18:58:43.712Z,75.48
2019-02-26T19:01:12.272Z,75.34
2019-02-26T19:03:41.588Z,75.28
2019-02-26T19:06:11.211Z,75.30
2019-02-26T19:08:39.977Z,75.38
2019-02-26T19:11:09.987Z,75.34
2019-02-26T19:13:38.582Z,75.54
2019-02-26T19:16:07.151Z,75.59
2019-02-26T19:18:36.578Z,75.69
2019-02-26T19:21:06.166Z,75.79
2019-02-26T19:23:34.730Z,75.90
2019-02-26T19:26:03.260Z,75.93
2019-02-26T19:28:31.924Z,75.96
2019-02-26T19:31:00.388Z,76.06
2019-02-26T19:33:28.957Z,77.01
2019-02-26T19:35:57.563Z,76.76
2019-02-26T19:38:27.667Z,76.91
2019-02-26T19:41:36.257Z,76.80
2019-02-26T19:44:05.113Z,76.92
2019-02-26T19:46:33.542Z,77.07
2019-02-26T19:49:05.573Z,77.55
2019-02-26T19:51:32.553Z,77.57
2019-02-26T19:54:01.246Z,77.76
2019-02-26T19:59:16.398Z,77.52
2019-02-26T20:01:45.814Z,77.93
2019-02-26T20:04:15.296Z,77.86
2019-02-26T20:06:44.118Z,78.00
2019-02-26T20:12:42.138Z,78.24
2019-02-26T20:15:54.673Z,78.31
2019-02-26T20:18:25.823Z,78.37
2019-02-26T20:23:20.485Z,78.46
2019-02-26T20:25:49.236Z,78.89
2019-02-26T20:28:18.300Z,78.70
2019-02-26T20:30:47.087Z,78.63
2019-02-26T20:33:35.456Z,78.61
2019-02-26T20:36:04.317Z,78.71
2019-02-26T20:38:35.295Z,78.85
2019-02-26T20:41:03.683Z,79.44
2019-02-26T20:43:36.406Z,78.94
2019-02-26T20:48:38.438Z,79.04
2019-02-26T20:51:07.025Z,79.32
2019-02-26T20:53:36.602Z,79.14
2019-02-26T20:56:06.119Z,79.23
2019-02-26T20:58:34.775Z,79.33
2019-02-26T21:03:58.797Z,79.45
2019-02-26T21:06:27.520Z,79.43
2019-02-26T21:08:56.074Z,79.42
2019-02-26T21:11:24.834Z,79.57
2019-02-26T21:13:53.515Z,79.67
2019-02-26T21:16:22.227Z,79.83
2019-02-26T21:18:51.038Z,80.02
2019-02-26T21:21:19.792Z,79.83
2019-02-26T21:23:48.651Z,79.80
2019-02-26T21:26:19.357Z,79.81
2019-02-26T21:28:47.810Z,79.68
2019-02-26T21:34:07.264Z,79.77
2019-02-26T21:36:35.748Z,79.64
2019-02-26T21:39:44.627Z,79.89
2019-02-26T21:42:13.626Z,79.83
2019-02-26T21:44:42.410Z,79.93
2019-02-26T21:47:11.158Z,79.99
2019-02-26T21:49:40.935Z,80.08
2019-02-26T21:52:10.361Z,79.97
2019-02-26T21:54:40.271Z,80.34
2019-02-26T21:57:09.416Z,80.32
2019-02-26T21:59:38.144Z,80.33
2019-02-26T22:02:06.969Z,80.19
2019-02-26T22:04:35.993Z,80.41
2019-02-26T22:09:59.411Z,80.49
2019-02-26T22:15:25.296Z,80.54
2019-02-26T22:17:57.842Z,80.73
2019-02-26T22:22:53.530Z,80.69
2019-02-26T22:25:22.319Z,80.64
2019-02-26T22:27:51.380Z,80.61
2019-02-26T22:30:22.874Z,80.71
2019-02-26T22:32:52.717Z,80.67
2019-02-26T22:35:25.595Z,81.13
2019-02-26T22:40:29.200Z,81.24
2019-02-26T22:45:33.209Z,81.18
2019-02-26T22:48:02.342Z,81.28
2019-02-26T22:50:31.036Z,81.19
2019-02-26T22:55:33.755Z,81.35
2019-02-26T22:58:03.409Z,81.33
2019-02-26T23:05:59.055Z,81.73
2019-02-26T23:08:27.937Z,81.87
2019-02-26T23:10:57.913Z,81.68
2019-02-26T23:13:31.469Z,81.85
2019-02-26T23:18:28.520Z,82.08
2019-02-26T23:23:33.058Z,81.87
2019-02-26T23:26:02.061Z,82.07
2019-02-26T23:28:30.752Z,82.21
2019-02-26T23:31:00.401Z,82.07
2019-02-26T23:33:30.373Z,82.15
2019-02-26T23:35:59.291Z,82.00
2019-02-26T23:38:28.072Z,82.01
2019-02-26T23:40:58.156Z,81.96
2019-02-26T23:46:20.065Z,81.93
2019-02-26T23:49:28.749Z,81.92
2019-02-26T23:51:57.827Z,82.00
2019-02-26T23:56:57.145Z,81.93
